sensor_id;sensor_type;location;lat;lon;timestamp;P1;durP1;ratioP1;P2;durP2;ratioP2
37657;SDS011;23500;53.268;8.308;2023-02-15T00:01:18;6.22;;;5.72;;
37657;SDS011;23500;53.268;8.308;2023-02-15T00:03:44;6.37;;;5.73;;
37657;SDS011;23500;53.268;8.308;2023-02-15T00:06:10;5.70;;;5.30;;
37657;SDS011;23500;53.268;8.308;2023-02-15T00:08:35;6.10;;;5.60;;
37657;SDS011;23500;53.268;8.308;2023-02-15T00:11:08;6.00;;;5.50;;
37657;SDS011;23500;53.268;8.308;2023-02-15T00:13:35;6.10;;;5.60;;
37657;SDS011;23500;53.268;8.308;2023-02-15T00:16:03;6.30;;;5.80;;
37657;SDS011;23500;53.268;8.308;2023-02-15T00:18:31;5.63;;;5.13;;
37657;SDS011;23500;53.268;8.308;2023-02-15T00:20:57;6.03;;;5.53;;
37657;SDS011;23500;53.268;8.308;2023-02-15T00:23:23;6.13;;;5.63;;
37657;SDS011;23500;53.268;8.308;2023-02-15T00:25:51;6.07;;;5.57;;
37657;SDS011;23500;53.268;8.308;2023-02-15T00:28:17;6.13;;;5.60;;
37657;SDS011;23500;53.268;8.308;2023-02-15T00:30:42;6.00;;;5.50;;
37657;SDS011;23500;53.268;8.308;2023-02-15T00:33:08;6.10;;;5.60;;
37657;SDS011;23500;53.268;8.308;2023-02-15T00:35:33;6.10;;;5.60;;
37657;SDS011;23500;53.268;8.308;2023-02-15T00:37:59;5.90;;;5.50;;
37657;SDS011;23500;53.268;8.308;2023-02-15T00:40:25;6.00;;;5.50;;
37657;SDS011;23500;53.268;8.308;2023-02-15T00:42:50;5.93;;;5.43;;
37657;SDS011;23500;53.268;8.308;2023-02-15T00:45:16;5.93;;;5.43;;
37657;SDS011;23500;53.268;8.308;2023-02-15T00:47:41;5.45;;;5.05;;
37657;SDS011;23500;53.268;8.308;2023-02-15T00:50:07;5.83;;;5.33;;
37657;SDS011;23500;53.268;8.308;2023-02-15T00:52:33;6.43;;;5.83;;
37657;SDS011;23500;53.268;8.308;2023-02-15T00:54:59;6.20;;;5.70;;
37657;SDS011;23500;53.268;8.308;2023-02-15T00:57:24;5.97;;;5.47;;
37657;SDS011;23500;53.268;8.308;2023-02-15T00:59:50;6.00;;;5.50;;
37657;SDS011;23500;53.268;8.308;2023-02-15T01:02:16;5.97;;;5.47;;
37657;SDS011;23500;53.268;8.308;2023-02-15T01:04:41;6.53;;;5.93;;
37657;SDS011;23500;53.268;8.308;2023-02-15T01:07:07;6.37;;;5.87;;
37657;SDS011;23500;53.268;8.308;2023-02-15T01:09:33;5.90;;;5.40;;
37657;SDS011;23500;53.268;8.308;2023-02-15T01:11:58;5.60;;;5.10;;
37657;SDS011;23500;53.268;8.308;2023-02-15T01:14:24;5.30;;;4.90;;
37657;SDS011;23500;53.268;8.308;2023-02-15T01:16:50;5.38;;;4.97;;
37657;SDS011;23500;53.268;8.308;2023-02-15T01:19:15;5.90;;;5.43;;
37657;SDS011;23500;53.268;8.308;2023-02-15T01:21:41;5.22;;;4.82;;
37657;SDS011;23500;53.268;8.308;2023-02-15T01:24:11;5.40;;;5.00;;
37657;SDS011;23500;53.268;8.308;2023-02-15T01:26:40;5.45;;;5.05;;
37657;SDS011;23500;53.268;8.308;2023-02-15T01:29:05;4.90;;;4.50;;
37657;SDS011;23500;53.268;8.308;2023-02-15T01:31:31;5.05;;;4.65;;
37657;SDS011;23500;53.268;8.308;2023-02-15T01:33:57;4.80;;;4.40;;
37657;SDS011;23500;53.268;8.308;2023-02-15T01:36:22;5.00;;;4.60;;
37657;SDS011;23500;53.268;8.308;2023-02-15T01:38:48;4.40;;;4.10;;
37657;SDS011;23500;53.268;8.308;2023-02-15T01:41:14;4.57;;;4.28;;
37657;SDS011;23500;53.268;8.308;2023-02-15T01:43:50;4.72;;;4.32;;
37657;SDS011;23500;53.268;8.308;2023-02-15T01:46:27;4.60;;;4.30;;
37657;SDS011;23500;53.268;8.308;2023-02-15T01:49:11;4.55;;;4.25;;
37657;SDS011;23500;53.268;8.308;2023-02-15T01:51:40;4.25;;;3.95;;
37657;SDS011;23500;53.268;8.308;2023-02-15T01:56:41;4.53;;;4.22;;
37657;SDS011;23500;53.268;8.308;2023-02-15T01:59:09;5.00;;;4.60;;
37657;SDS011;23500;53.268;8.308;2023-02-15T02:01:39;4.45;;;4.15;;
37657;SDS011;23500;53.268;8.308;2023-02-15T02:04:23;4.35;;;4.05;;
37657;SDS011;23500;53.268;8.308;2023-02-15T02:06:56;4.43;;;4.13;;
37657;SDS011;23500;53.268;8.308;2023-02-15T02:09:23;4.70;;;4.30;;
37657;SDS011;23500;53.268;8.308;2023-02-15T02:11:49;5.28;;;4.88;;
37657;SDS011;23500;53.268;8.308;2023-02-15T02:14:15;4.85;;;4.45;;
37657;SDS011;23500;53.268;8.308;2023-02-15T02:33:32;4.75;;;4.45;;
37657;SDS011;23500;53.268;8.308;2023-02-15T02:40:09;4.72;;;4.40;;
37657;SDS011;23500;53.268;8.308;2023-02-15T02:42:19;4.57;;;4.28;;
37657;SDS011;23500;53.268;8.308;2023-02-15T02:45:05;4.82;;;4.50;;
37657;SDS011;23500;53.268;8.308;2023-02-15T02:48:35;4.50;;;4.13;;
37657;SDS011;23500;53.268;8.308;2023-02-15T02:50:35;4.35;;;4.05;;
37657;SDS011;23500;53.268;8.308;2023-02-15T02:53:04;4.25;;;3.95;;
37657;SDS011;23500;53.268;8.308;2023-02-15T02:55:43;4.70;;;4.30;;
37657;SDS011;23500;53.268;8.308;2023-02-15T03:00:40;4.18;;;3.88;;
37657;SDS011;23500;53.268;8.308;2023-02-15T03:03:19;4.38;;;4.07;;
37657;SDS011;23500;53.268;8.308;2023-02-15T03:05:53;4.10;;;3.80;;
37657;SDS011;23500;53.268;8.308;2023-02-15T03:08:22;4.65;;;4.30;;
37657;SDS011;23500;53.268;8.308;2023-02-15T03:10:53;4.55;;;4.18;;
37657;SDS011;23500;53.268;8.308;2023-02-15T03:13:21;4.55;;;4.25;;
37657;SDS011;23500;53.268;8.308;2023-02-15T03:15:47;4.53;;;4.20;;
37657;SDS011;23500;53.268;8.308;2023-02-15T03:18:40;4.55;;;4.15;;
37657;SDS011;23500;53.268;8.308;2023-02-15T03:21:17;4.65;;;4.30;;
37657;SDS011;23500;53.268;8.308;2023-02-15T03:23:54;4.40;;;4.10;;
37657;SDS011;23500;53.268;8.308;2023-02-15T03:26:25;4.63;;;4.25;;
37657;SDS011;23500;53.268;8.308;2023-02-15T03:28:53;4.28;;;3.97;;
37657;SDS011;23500;53.268;8.308;2023-02-15T03:31:21;3.90;;;3.60;;
37657;SDS011;23500;53.268;8.308;2023-02-15T03:34:00;4.43;;;4.13;;
37657;SDS011;23500;53.268;8.308;2023-02-15T03:39:12;4.10;;;3.80;;
37657;SDS011;23500;53.268;8.308;2023-02-15T03:41:53;4.43;;;4.13;;
37657;SDS011;23500;53.268;8.308;2023-02-15T03:44:51;4.22;;;3.92;;
37657;SDS011;23500;53.268;8.308;2023-02-15T03:47:34;4.32;;;4.03;;
37657;SDS011;23500;53.268;8.308;2023-02-15T03:50:11;4.40;;;4.10;;
37657;SDS011;23500;53.268;8.308;2023-02-15T03:53:02;4.00;;;3.70;;
37657;SDS011;23500;53.268;8.308;2023-02-15T03:55:31;3.92;;;3.63;;
37657;SDS011;23500;53.268;8.308;2023-02-15T03:57:58;4.10;;;3.80;;
37657;SDS011;23500;53.268;8.308;2023-02-15T04:00:44;3.90;;;3.60;;
37657;SDS011;23500;53.268;8.308;2023-02-15T04:03:57;4.65;;;4.28;;
37657;SDS011;23500;53.268;8.308;2023-02-15T04:06:28;4.00;;;3.70;;
37657;SDS011;23500;53.268;8.308;2023-02-15T04:08:53;4.05;;;3.75;;
37657;SDS011;23500;53.268;8.308;2023-02-15T04:11:38;4.30;;;4.00;;
37657;SDS011;23500;53.268;8.308;2023-02-15T04:14:03;4.05;;;3.75;;
37657;SDS011;23500;53.268;8.308;2023-02-15T04:16:49;4.53;;;4.18;;
37657;SDS011;23500;53.268;8.308;2023-02-15T04:19:15;4.38;;;3.97;;
37657;SDS011;23500;53.268;8.308;2023-02-15T04:21:59;4.10;;;3.80;;
37657;SDS011;23500;53.268;8.308;2023-02-15T04:24:43;4.50;;;4.13;;
37657;SDS011;23500;53.268;8.308;2023-02-15T04:27:27;4.15;;;3.85;;
37657;SDS011;23500;53.268;8.308;2023-02-15T04:29:52;4.50;;;4.10;;
37657;SDS011;23500;53.268;8.308;2023-02-15T04:32:18;4.35;;;3.95;;
37657;SDS011;23500;53.268;8.308;2023-02-15T04:34:44;3.70;;;3.50;;
37657;SDS011;23500;53.268;8.308;2023-02-15T04:37:09;3.90;;;3.60;;
37657;SDS011;23500;53.268;8.308;2023-02-15T04:39:35;3.97;;;3.67;;
37657;SDS011;23500;53.268;8.308;2023-02-15T04:42:00;3.85;;;3.55;;
37657;SDS011;23500;53.268;8.308;2023-02-15T04:44:26;4.07;;;3.78;;
37657;SDS011;23500;53.268;8.308;2023-02-15T04:46:52;4.63;;;4.22;;
37657;SDS011;23500;53.268;8.308;2023-02-15T04:49:17;3.90;;;3.60;;
37657;SDS011;23500;53.268;8.308;2023-02-15T04:51:43;4.10;;;3.80;;
37657;SDS011;23500;53.268;8.308;2023-02-15T04:54:09;3.55;;;3.30;;
37657;SDS011;23500;53.268;8.308;2023-02-15T04:56:34;4.20;;;3.90;;
37657;SDS011;23500;53.268;8.308;2023-02-15T04:59:02;4.40;;;4.10;;
37657;SDS011;23500;53.268;8.308;2023-02-15T05:01:28;3.97;;;3.67;;
37657;SDS011;23500;53.268;8.308;2023-02-15T05:03:53;3.50;;;3.30;;
37657;SDS011;23500;53.268;8.308;2023-02-15T05:06:19;3.88;;;3.65;;
37657;SDS011;23500;53.268;8.308;2023-02-15T05:08:45;4.05;;;3.75;;
37657;SDS011;23500;53.268;8.308;2023-02-15T05:11:11;3.90;;;3.60;;
37657;SDS011;23500;53.268;8.308;2023-02-15T05:13:37;3.83;;;3.53;;
37657;SDS011;23500;53.268;8.308;2023-02-15T05:16:02;4.10;;;3.80;;
37657;SDS011;23500;53.268;8.308;2023-02-15T05:18:28;4.20;;;3.90;;
37657;SDS011;23500;53.268;8.308;2023-02-15T05:20:54;4.32;;;4.03;;
37657;SDS011;23500;53.268;8.308;2023-02-15T05:23:20;3.92;;;3.63;;
37657;SDS011;23500;53.268;8.308;2023-02-15T05:25:46;4.07;;;3.78;;
37657;SDS011;23500;53.268;8.308;2023-02-15T05:28:34;3.50;;;3.30;;
37657;SDS011;23500;53.268;8.308;2023-02-15T05:31:11;4.20;;;3.90;;
37657;SDS011;23500;53.268;8.308;2023-02-15T05:33:44;3.88;;;3.58;;
37657;SDS011;23500;53.268;8.308;2023-02-15T05:36:10;3.88;;;3.58;;
37657;SDS011;23500;53.268;8.308;2023-02-15T05:38:36;3.95;;;3.65;;
37657;SDS011;23500;53.268;8.308;2023-02-15T05:41:03;3.90;;;3.60;;
37657;SDS011;23500;53.268;8.308;2023-02-15T05:43:31;4.18;;;3.85;;
37657;SDS011;23500;53.268;8.308;2023-02-15T05:45:58;3.80;;;3.50;;
37657;SDS011;23500;53.268;8.308;2023-02-15T05:48:24;3.72;;;3.45;;
37657;SDS011;23500;53.268;8.308;2023-02-15T05:50:58;4.05;;;3.75;;
37657;SDS011;23500;53.268;8.308;2023-02-15T05:53:26;3.85;;;3.55;;
37657;SDS011;23500;53.268;8.308;2023-02-15T05:55:52;3.38;;;3.17;;
37657;SDS011;23500;53.268;8.308;2023-02-15T05:58:23;3.60;;;3.30;;
37657;SDS011;23500;53.268;8.308;2023-02-15T06:00:53;3.88;;;3.58;;
37657;SDS011;23500;53.268;8.308;2023-02-15T06:03:19;3.55;;;3.25;;
37657;SDS011;23500;53.268;8.308;2023-02-15T06:05:44;3.50;;;3.20;;
37657;SDS011;23500;53.268;8.308;2023-02-15T06:08:10;3.72;;;3.42;;
37657;SDS011;23500;53.268;8.308;2023-02-15T06:10:36;3.88;;;3.58;;
37657;SDS011;23500;53.268;8.308;2023-02-15T06:13:01;4.13;;;3.83;;
37657;SDS011;23500;53.268;8.308;2023-02-15T06:15:27;4.20;;;3.90;;
37657;SDS011;23500;53.268;8.308;2023-02-15T06:17:53;4.00;;;3.70;;
37657;SDS011;23500;53.268;8.308;2023-02-15T06:20:18;4.03;;;3.72;;
37657;SDS011;23500;53.268;8.308;2023-02-15T06:22:44;4.03;;;3.72;;
37657;SDS011;23500;53.268;8.308;2023-02-15T06:25:10;4.03;;;3.72;;
37657;SDS011;23500;53.268;8.308;2023-02-15T06:27:36;4.35;;;3.95;;
37657;SDS011;23500;53.268;8.308;2023-02-15T06:30:05;4.03;;;3.72;;
37657;SDS011;23500;53.268;8.308;2023-02-15T06:32:32;3.80;;;3.50;;
37657;SDS011;23500;53.268;8.308;2023-02-15T06:34:58;4.32;;;3.92;;
37657;SDS011;23500;53.268;8.308;2023-02-15T06:37:24;3.55;;;3.25;;
37657;SDS011;23500;53.268;8.308;2023-02-15T06:39:49;3.88;;;3.58;;
37657;SDS011;23500;53.268;8.308;2023-02-15T06:42:15;3.78;;;3.47;;
37657;SDS011;23500;53.268;8.308;2023-02-15T06:44:42;3.88;;;3.58;;
37657;SDS011;23500;53.268;8.308;2023-02-15T06:47:08;4.18;;;3.88;;
37657;SDS011;23500;53.268;8.308;2023-02-15T06:49:34;4.18;;;3.78;;
37657;SDS011;23500;53.268;8.308;2023-02-15T06:52:00;3.95;;;3.63;;
37657;SDS011;23500;53.268;8.308;2023-02-15T06:54:25;4.25;;;3.88;;
37657;SDS011;23500;53.268;8.308;2023-02-15T06:56:51;4.00;;;3.60;;
37657;SDS011;23500;53.268;8.308;2023-02-15T06:59:16;4.40;;;4.00;;
37657;SDS011;23500;53.268;8.308;2023-02-15T07:01:42;4.28;;;3.83;;
37657;SDS011;23500;53.268;8.308;2023-02-15T07:04:08;5.25;;;4.00;;
37657;SDS011;23500;53.268;8.308;2023-02-15T07:06:34;4.28;;;3.88;;
37657;SDS011;23500;53.268;8.308;2023-02-15T07:09:00;4.60;;;4.05;;
37657;SDS011;23500;53.268;8.308;2023-02-15T07:11:25;7.78;;;4.78;;
37657;SDS011;23500;53.268;8.308;2023-02-15T07:14:09;5.68;;;3.90;;
37657;SDS011;23500;53.268;8.308;2023-02-15T07:16:35;5.82;;;3.70;;
37657;SDS011;23500;53.268;8.308;2023-02-15T07:19:01;5.40;;;4.18;;
37657;SDS011;23500;53.268;8.308;2023-02-15T07:21:27;4.78;;;4.10;;
37657;SDS011;23500;53.268;8.308;2023-02-15T07:23:55;7.07;;;4.57;;
37657;SDS011;23500;53.268;8.308;2023-02-15T07:26:22;6.05;;;4.18;;
37657;SDS011;23500;53.268;8.308;2023-02-15T07:28:48;6.50;;;4.33;;
37657;SDS011;23500;53.268;8.308;2023-02-15T07:31:14;5.65;;;4.50;;
37657;SDS011;23500;53.268;8.308;2023-02-15T07:33:40;7.32;;;4.65;;
37657;SDS011;23500;53.268;8.308;2023-02-15T07:36:06;7.88;;;4.50;;
37657;SDS011;23500;53.268;8.308;2023-02-15T07:38:35;8.32;;;4.63;;
37657;SDS011;23500;53.268;8.308;2023-02-15T07:41:02;8.70;;;5.38;;
37657;SDS011;23500;53.268;8.308;2023-02-15T07:43:30;8.82;;;4.90;;
37657;SDS011;23500;53.268;8.308;2023-02-15T07:46:03;10.13;;;4.97;;
37657;SDS011;23500;53.268;8.308;2023-02-15T07:48:32;6.13;;;4.73;;
37657;SDS011;23500;53.268;8.308;2023-02-15T07:50:59;9.17;;;5.47;;
37657;SDS011;23500;53.268;8.308;2023-02-15T07:53:25;8.98;;;5.00;;
37657;SDS011;23500;53.268;8.308;2023-02-15T07:55:51;7.65;;;5.43;;
37657;SDS011;23500;53.268;8.308;2023-02-15T07:58:17;8.52;;;5.10;;
37657;SDS011;23500;53.268;8.308;2023-02-15T08:00:43;8.98;;;4.70;;
37657;SDS011;23500;53.268;8.308;2023-02-15T08:03:26;7.82;;;4.82;;
37657;SDS011;23500;53.268;8.308;2023-02-15T08:05:57;9.00;;;4.80;;
37657;SDS011;23500;53.268;8.308;2023-02-15T08:08:24;10.68;;;5.32;;
37657;SDS011;23500;53.268;8.308;2023-02-15T08:10:57;10.57;;;5.45;;
37657;SDS011;23500;53.268;8.308;2023-02-15T08:13:45;10.30;;;5.18;;
37657;SDS011;23500;53.268;8.308;2023-02-15T08:16:19;11.48;;;5.20;;
37657;SDS011;23500;53.268;8.308;2023-02-15T08:18:49;10.87;;;5.23;;
37657;SDS011;23500;53.268;8.308;2023-02-15T08:21:14;7.37;;;5.63;;
37657;SDS011;23500;53.268;8.308;2023-02-15T08:23:40;8.73;;;5.40;;
37657;SDS011;23500;53.268;8.308;2023-02-15T08:26:06;9.13;;;5.68;;
37657;SDS011;23500;53.268;8.308;2023-02-15T08:28:31;10.70;;;5.50;;
37657;SDS011;23500;53.268;8.308;2023-02-15T08:31:30;8.80;;;5.68;;
37657;SDS011;23500;53.268;8.308;2023-02-15T08:33:49;10.27;;;5.63;;
37657;SDS011;23500;53.268;8.308;2023-02-15T08:36:17;9.63;;;5.55;;
37657;SDS011;23500;53.268;8.308;2023-02-15T08:38:45;8.90;;;6.20;;
37657;SDS011;23500;53.268;8.308;2023-02-15T08:43:44;10.00;;;5.93;;
37657;SDS011;23500;53.268;8.308;2023-02-15T08:46:11;11.10;;;5.90;;
37657;SDS011;23500;53.268;8.308;2023-02-15T08:48:38;9.77;;;5.50;;
37657;SDS011;23500;53.268;8.308;2023-02-15T08:51:08;11.07;;;6.05;;
37657;SDS011;23500;53.268;8.308;2023-02-15T08:53:36;11.10;;;5.65;;
37657;SDS011;23500;53.268;8.308;2023-02-15T08:56:05;7.13;;;4.95;;
37657;SDS011;23500;53.268;8.308;2023-02-15T08:58:31;10.38;;;6.18;;
37657;SDS011;23500;53.268;8.308;2023-02-15T09:00:58;9.30;;;5.82;;
37657;SDS011;23500;53.268;8.308;2023-02-15T09:03:24;11.00;;;6.28;;
37657;SDS011;23500;53.268;8.308;2023-02-15T09:05:49;9.10;;;5.68;;
37657;SDS011;23500;53.268;8.308;2023-02-15T09:08:15;9.87;;;6.10;;
37657;SDS011;23500;53.268;8.308;2023-02-15T09:10:41;8.63;;;5.47;;
37657;SDS011;23500;53.268;8.308;2023-02-15T09:13:07;11.00;;;5.72;;
37657;SDS011;23500;53.268;8.308;2023-02-15T09:15:33;10.35;;;6.43;;
37657;SDS011;23500;53.268;8.308;2023-02-15T09:17:58;9.32;;;5.97;;
37657;SDS011;23500;53.268;8.308;2023-02-15T09:20:27;8.57;;;5.90;;
37657;SDS011;23500;53.268;8.308;2023-02-15T09:22:53;9.45;;;5.85;;
37657;SDS011;23500;53.268;8.308;2023-02-15T09:25:19;9.82;;;5.82;;
37657;SDS011;23500;53.268;8.308;2023-02-15T09:27:45;8.68;;;5.85;;
37657;SDS011;23500;53.268;8.308;2023-02-15T09:30:11;10.18;;;5.97;;
37657;SDS011;23500;53.268;8.308;2023-02-15T09:32:37;10.30;;;5.83;;
37657;SDS011;23500;53.268;8.308;2023-02-15T09:35:03;9.18;;;5.50;;
37657;SDS011;23500;53.268;8.308;2023-02-15T09:37:32;9.13;;;5.85;;
37657;SDS011;23500;53.268;8.308;2023-02-15T09:39:57;10.37;;;6.03;;
37657;SDS011;23500;53.268;8.308;2023-02-15T09:55:20;10.57;;;6.07;;
37657;SDS011;23500;53.268;8.308;2023-02-15T10:06:56;7.97;;;5.75;;
37657;SDS011;23500;53.268;8.308;2023-02-15T10:15:36;9.25;;;6.05;;
37657;SDS011;23500;53.268;8.308;2023-02-15T10:18:46;9.70;;;6.10;;
37657;SDS011;23500;53.268;8.308;2023-02-15T10:26:44;9.25;;;6.20;;
37657;SDS011;23500;53.268;8.308;2023-02-15T10:29:18;9.82;;;5.78;;
37657;SDS011;23500;53.268;8.308;2023-02-15T10:40:22;8.30;;;5.90;;
37657;SDS011;23500;53.268;8.308;2023-02-15T10:43:04;10.35;;;6.10;;
37657;SDS011;23500;53.268;8.308;2023-02-15T10:50:56;8.27;;;5.37;;
37657;SDS011;23500;53.268;8.308;2023-02-15T10:59:46;8.23;;;5.38;;
37657;SDS011;23500;53.268;8.308;2023-02-15T11:08:20;8.57;;;5.57;;
37657;SDS011;23500;53.268;8.308;2023-02-15T11:10:49;6.53;;;5.20;;
37657;SDS011;23500;53.268;8.308;2023-02-15T11:13:19;7.13;;;5.20;;
37657;SDS011;23500;53.268;8.308;2023-02-15T11:15:50;8.45;;;5.03;;
37657;SDS011;23500;53.268;8.308;2023-02-15T11:23:43;8.43;;;5.50;;
37657;SDS011;23500;53.268;8.308;2023-02-15T11:26:16;8.13;;;5.45;;
37657;SDS011;23500;53.268;8.308;2023-02-15T11:28:51;7.75;;;5.40;;
37657;SDS011;23500;53.268;8.308;2023-02-15T11:31:22;6.55;;;5.10;;
37657;SDS011;23500;53.268;8.308;2023-02-15T11:34:00;6.50;;;4.80;;
37657;SDS011;23500;53.268;8.308;2023-02-15T11:36:34;6.80;;;5.25;;
37657;SDS011;23500;53.268;8.308;2023-02-15T11:39:13;7.80;;;5.18;;
37657;SDS011;23500;53.268;8.308;2023-02-15T11:41:46;6.88;;;4.80;;
37657;SDS011;23500;53.268;8.308;2023-02-15T11:44:51;8.77;;;5.13;;
37657;SDS011;23500;53.268;8.308;2023-02-15T11:47:16;7.18;;;4.88;;
37657;SDS011;23500;53.268;8.308;2023-02-15T11:49:41;6.57;;;4.95;;
37657;SDS011;23500;53.268;8.308;2023-02-15T11:52:13;8.30;;;5.20;;
37657;SDS011;23500;53.268;8.308;2023-02-15T11:54:41;7.05;;;4.88;;
37657;SDS011;23500;53.268;8.308;2023-02-15T12:00:01;6.57;;;4.72;;
37657;SDS011;23500;53.268;8.308;2023-02-15T12:02:35;7.20;;;4.97;;
37657;SDS011;23500;53.268;8.308;2023-02-15T12:05:05;7.03;;;4.90;;
37657;SDS011;23500;53.268;8.308;2023-02-15T12:07:37;6.70;;;5.13;;
37657;SDS011;23500;53.268;8.308;2023-02-15T12:13:08;6.80;;;4.88;;
37657;SDS011;23500;53.268;8.308;2023-02-15T12:15:34;7.35;;;4.75;;
37657;SDS011;23500;53.268;8.308;2023-02-15T12:18:01;6.32;;;4.78;;
37657;SDS011;23500;53.268;8.308;2023-02-15T12:20:33;6.47;;;5.05;;
37657;SDS011;23500;53.268;8.308;2023-02-15T12:23:03;6.40;;;4.60;;
37657;SDS011;23500;53.268;8.308;2023-02-15T12:25:41;7.03;;;4.82;;
37657;SDS011;23500;53.268;8.308;2023-02-15T12:28:39;7.85;;;5.07;;
37657;SDS011;23500;53.268;8.308;2023-02-15T12:33:46;7.75;;;5.22;;
37657;SDS011;23500;53.268;8.308;2023-02-15T12:36:15;7.22;;;5.80;;
37657;SDS011;23500;53.268;8.308;2023-02-15T12:41:38;7.53;;;5.75;;
37657;SDS011;23500;53.268;8.308;2023-02-15T12:44:17;6.68;;;5.10;;
37657;SDS011;23500;53.268;8.308;2023-02-15T12:49:39;5.88;;;4.38;;
37657;SDS011;23500;53.268;8.308;2023-02-15T12:54:42;6.75;;;4.65;;
37657;SDS011;23500;53.268;8.308;2023-02-15T13:07:51;5.43;;;4.78;;
37657;SDS011;23500;53.268;8.308;2023-02-15T13:10:25;5.47;;;4.22;;
37657;SDS011;23500;53.268;8.308;2023-02-15T13:12:56;5.60;;;4.38;;
37657;SDS011;23500;53.268;8.308;2023-02-15T13:18:13;6.35;;;4.20;;
37657;SDS011;23500;53.268;8.308;2023-02-15T13:20:44;6.18;;;4.30;;
37657;SDS011;23500;53.268;8.308;2023-02-15T13:23:20;6.43;;;4.85;;
37657;SDS011;23500;53.268;8.308;2023-02-15T13:25:47;5.88;;;4.70;;
37657;SDS011;23500;53.268;8.308;2023-02-15T13:28:16;4.93;;;4.40;;
37657;SDS011;23500;53.268;8.308;2023-02-15T13:30:45;5.28;;;4.15;;
37657;SDS011;23500;53.268;8.308;2023-02-15T13:35:46;5.43;;;4.43;;
37657;SDS011;23500;53.268;8.308;2023-02-15T13:52:27;5.50;;;4.15;;
37657;SDS011;23500;53.268;8.308;2023-02-15T13:55:06;5.95;;;4.28;;
37657;SDS011;23500;53.268;8.308;2023-02-15T14:00:47;6.57;;;4.72;;
37657;SDS011;23500;53.268;8.308;2023-02-15T14:03:19;6.05;;;4.70;;
37657;SDS011;23500;53.268;8.308;2023-02-15T14:08:39;7.15;;;4.25;;
37657;SDS011;23500;53.268;8.308;2023-02-15T14:13:55;5.22;;;4.25;;
37657;SDS011;23500;53.268;8.308;2023-02-15T14:19:42;6.15;;;4.20;;
37657;SDS011;23500;53.268;8.308;2023-02-15T14:28:45;5.43;;;4.13;;
37657;SDS011;23500;53.268;8.308;2023-02-15T14:30:48;5.03;;;3.95;;
37657;SDS011;23500;53.268;8.308;2023-02-15T14:36:02;5.32;;;4.07;;
37657;SDS011;23500;53.268;8.308;2023-02-15T14:38:54;5.70;;;4.28;;
37657;SDS011;23500;53.268;8.308;2023-02-15T14:41:24;6.43;;;4.65;;
37657;SDS011;23500;53.268;8.308;2023-02-15T14:44:17;4.75;;;3.47;;
37657;SDS011;23500;53.268;8.308;2023-02-15T14:49:39;5.80;;;4.13;;
37657;SDS011;23500;53.268;8.308;2023-02-15T14:52:09;6.40;;;4.43;;
37657;SDS011;23500;53.268;8.308;2023-02-15T14:59:46;4.97;;;4.15;;
37657;SDS011;23500;53.268;8.308;2023-02-15T15:02:18;5.22;;;4.30;;
37657;SDS011;23500;53.268;8.308;2023-02-15T15:05:07;5.30;;;4.00;;
37657;SDS011;23500;53.268;8.308;2023-02-15T15:07:42;5.70;;;4.18;;
37657;SDS011;23500;53.268;8.308;2023-02-15T15:12:51;4.53;;;4.07;;
37657;SDS011;23500;53.268;8.308;2023-02-15T15:15:46;4.05;;;3.58;;
37657;SDS011;23500;53.268;8.308;2023-02-15T15:21:34;5.95;;;4.25;;
37657;SDS011;23500;53.268;8.308;2023-02-15T15:49:00;5.55;;;4.35;;
37657;SDS011;23500;53.268;8.308;2023-02-15T15:51:47;4.57;;;3.88;;
37657;SDS011;23500;53.268;8.308;2023-02-15T15:54:15;5.28;;;3.95;;
37657;SDS011;23500;53.268;8.308;2023-02-15T15:56:44;4.70;;;4.13;;
37657;SDS011;23500;53.268;8.308;2023-02-15T15:59:22;5.07;;;4.20;;
37657;SDS011;23500;53.268;8.308;2023-02-15T16:01:51;4.57;;;4.00;;
37657;SDS011;23500;53.268;8.308;2023-02-15T16:06:56;4.35;;;3.88;;
37657;SDS011;23500;53.268;8.308;2023-02-15T16:09:24;4.40;;;4.00;;
37657;SDS011;23500;53.268;8.308;2023-02-15T16:11:52;4.75;;;4.00;;
37657;SDS011;23500;53.268;8.308;2023-02-15T16:14:28;4.30;;;3.70;;
37657;SDS011;23500;53.268;8.308;2023-02-15T16:17:00;4.80;;;3.83;;
37657;SDS011;23500;53.268;8.308;2023-02-15T16:19:30;4.53;;;4.13;;
37657;SDS011;23500;53.268;8.308;2023-02-15T16:22:09;4.32;;;3.80;;
37657;SDS011;23500;53.268;8.308;2023-02-15T16:27:42;6.15;;;5.38;;
37657;SDS011;23500;53.268;8.308;2023-02-15T16:30:42;5.65;;;4.60;;
37657;SDS011;23500;53.268;8.308;2023-02-15T16:35:33;5.53;;;4.60;;
37657;SDS011;23500;53.268;8.308;2023-02-15T16:38:00;5.53;;;4.90;;
37657;SDS011;23500;53.268;8.308;2023-02-15T16:40:30;5.63;;;4.88;;
37657;SDS011;23500;53.268;8.308;2023-02-15T16:43:10;5.55;;;4.88;;
37657;SDS011;23500;53.268;8.308;2023-02-15T16:45:39;5.35;;;4.63;;
37657;SDS011;23500;53.268;8.308;2023-02-15T16:48:07;5.13;;;4.60;;
37657;SDS011;23500;53.268;8.308;2023-02-15T16:50:39;5.70;;;4.50;;
37657;SDS011;23500;53.268;8.308;2023-02-15T16:53:14;5.32;;;4.82;;
37657;SDS011;23500;53.268;8.308;2023-02-15T16:55:44;5.40;;;4.90;;
37657;SDS011;23500;53.268;8.308;2023-02-15T16:58:15;4.72;;;4.22;;
37657;SDS011;23500;53.268;8.308;2023-02-15T17:00:44;5.18;;;4.65;;
37657;SDS011;23500;53.268;8.308;2023-02-15T17:10:38;5.05;;;4.55;;
37657;SDS011;23500;53.268;8.308;2023-02-15T17:13:10;5.00;;;4.50;;
37657;SDS011;23500;53.268;8.308;2023-02-15T17:15:44;4.90;;;4.40;;
37657;SDS011;23500;53.268;8.308;2023-02-15T17:18:23;6.05;;;4.90;;
37657;SDS011;23500;53.268;8.308;2023-02-15T17:20:51;4.60;;;4.20;;
37657;SDS011;23500;53.268;8.308;2023-02-15T17:23:21;6.00;;;5.20;;
37657;SDS011;23500;53.268;8.308;2023-02-15T17:26:00;5.10;;;4.60;;
37657;SDS011;23500;53.268;8.308;2023-02-15T17:28:36;5.22;;;4.72;;
37657;SDS011;23500;53.268;8.308;2023-02-15T17:31:02;5.80;;;4.30;;
37657;SDS011;23500;53.268;8.308;2023-02-15T17:36:05;5.47;;;4.95;;
37657;SDS011;23500;53.268;8.308;2023-02-15T17:38:31;5.10;;;4.60;;
37657;SDS011;23500;53.268;8.308;2023-02-15T17:40:57;5.28;;;4.78;;
37657;SDS011;23500;53.268;8.308;2023-02-15T17:43:26;5.43;;;4.93;;
37657;SDS011;23500;53.268;8.308;2023-02-15T17:45:52;5.22;;;4.82;;
37657;SDS011;23500;53.268;8.308;2023-02-15T17:48:21;5.40;;;4.90;;
37657;SDS011;23500;53.268;8.308;2023-02-15T17:50:59;5.15;;;4.65;;
37657;SDS011;23500;53.268;8.308;2023-02-15T17:53:26;5.88;;;4.93;;
37657;SDS011;23500;53.268;8.308;2023-02-15T17:55:52;5.20;;;4.70;;
37657;SDS011;23500;53.268;8.308;2023-02-15T17:58:18;5.70;;;5.10;;
37657;SDS011;23500;53.268;8.308;2023-02-15T18:00:54;5.20;;;4.70;;
37657;SDS011;23500;53.268;8.308;2023-02-15T18:06:28;5.30;;;4.80;;
37657;SDS011;23500;53.268;8.308;2023-02-15T18:09:13;4.82;;;4.43;;
37657;SDS011;23500;53.268;8.308;2023-02-15T18:11:59;5.32;;;4.82;;
37657;SDS011;23500;53.268;8.308;2023-02-15T18:14:26;4.55;;;4.15;;
37657;SDS011;23500;53.268;8.308;2023-02-15T18:16:51;5.93;;;5.32;;
37657;SDS011;23500;53.268;8.308;2023-02-15T18:19:20;5.30;;;4.80;;
37657;SDS011;23500;53.268;8.308;2023-02-15T18:21:47;5.32;;;4.82;;
37657;SDS011;23500;53.268;8.308;2023-02-15T18:24:18;4.93;;;4.47;;
37657;SDS011;23500;53.268;8.308;2023-02-15T18:26:45;5.00;;;4.50;;
37657;SDS011;23500;53.268;8.308;2023-02-15T18:29:12;5.40;;;4.90;;
37657;SDS011;23500;53.268;8.308;2023-02-15T18:31:38;5.95;;;4.80;;
37657;SDS011;23500;53.268;8.308;2023-02-15T18:34:04;4.38;;;3.97;;
37657;SDS011;23500;53.268;8.308;2023-02-15T18:36:39;5.50;;;5.00;;
37657;SDS011;23500;53.268;8.308;2023-02-15T18:39:24;5.10;;;4.65;;
37657;SDS011;23500;53.268;8.308;2023-02-15T18:41:55;5.28;;;4.53;;
37657;SDS011;23500;53.268;8.308;2023-02-15T18:44:21;5.40;;;4.90;;
37657;SDS011;23500;53.268;8.308;2023-02-15T18:46:47;5.30;;;4.80;;
37657;SDS011;23500;53.268;8.308;2023-02-15T18:49:13;5.05;;;4.55;;
37657;SDS011;23500;53.268;8.308;2023-02-15T18:51:39;5.05;;;4.57;;